Terminal Aerodrome Forecast
Issued by NWS

Home | Current Version | Previous Version | Text Only | Print | Product List | Glossary Off
Versions: 1 2 3 4 5 6 7 8 9 10 11 12 13 14 15 16 17

924
FTUS43 KMPX 161456 AAA
TAFAXN
TAF AMD
KAXN 161456Z 1615/1712 33010G16KT P6SM BKN025
     FM161800 35011KT P6SM FEW025
     FM170100 01004KT P6SM SKC=

USA.gov is the U.S. government's official web portal to all federal, state and local government web resources and services.